Time;durP1;ratioP1;P1;durP2;ratioP2;P2;SDS_P1;SDS_P2;PMS_P1;PMS_P2;Temp;Humidity;BMP_temperature;BMP_pressure;BME280_temperature;BME280_humidity;BME280_pressure;Samples;Min_cycle;Max_cycle;Signal;HPM_P1;HPM_P2
2022/09/17 00:02:24;;;;;;;21.13;2.88;;;12.60;99.90;;;;;;5012608;28;20582;-71
2022/09/17 00:04:51;;;;;;;8.27;3.70;;;12.60;99.90;;;;;;5012045;28;20202;-73
2022/09/17 00:07:18;;;;;;;16.52;3.75;;;12.60;99.90;;;;;;5007971;28;20247;-72
2022/09/17 00:09:45;;;;;;;12.55;3.38;;;12.60;99.90;;;;;;5004696;28;20217;-72
2022/09/17 00:12:13;;;;;;;16.20;3.95;;;12.50;99.90;;;;;;5010558;28;20250;-74
2022/09/17 00:14:42;;;;;;;14.27;3.58;;;12.60;99.90;;;;;;5003726;28;20316;-71
2022/09/17 00:17:09;;;;;;;13.48;2.92;;;12.40;99.90;;;;;;5006865;28;20232;-72
2022/09/17 00:19:36;;;;;;;12.77;3.25;;;12.40;99.90;;;;;;5011883;28;20232;-73
2022/09/17 00:22:03;;;;;;;27.05;6.25;;;12.30;99.90;;;;;;5003023;28;20825;-73
2022/09/17 00:24:31;;;;;;;11.50;3.10;;;12.30;99.90;;;;;;5001081;28;20266;-72
2022/09/17 00:26:58;;;;;;;16.27;3.47;;;12.20;99.90;;;;;;5003567;28;20766;-73
2022/09/17 00:29:26;;;;;;;18.88;3.67;;;12.20;99.90;;;;;;5009469;28;20261;-73
2022/09/17 00:31:55;;;;;;;19.15;4.85;;;12.10;99.90;;;;;;5006426;28;20271;-71
2022/09/17 00:34:23;;;;;;;22.60;4.40;;;12.10;99.90;;;;;;5002236;28;20284;-72
2022/09/17 00:36:49;;;;;;;26.13;3.80;;;12.10;99.90;;;;;;5013543;28;20291;-71
2022/09/17 00:39:17;;;;;;;18.27;2.80;;;12.10;99.90;;;;;;5009221;28;20226;-74
2022/09/17 00:41:45;;;;;;;14.15;3.10;;;12.10;99.90;;;;;;5011057;28;20212;-71
2022/09/17 00:44:51;;;;;;;22.38;3.90;;;12.10;99.90;;;;;;5014789;28;20204;-73
2022/09/17 00:47:28;;;;;;;12.60;2.85;;;12.10;99.90;;;;;;5002261;28;20227;-72
2022/09/17 00:49:58;;;;;;;16.23;4.15;;;12.20;99.90;;;;;;4996891;28;20201;-73
2022/09/17 00:52:30;;;;;;;15.85;4.22;;;12.10;99.90;;;;;;5005554;28;20565;-73
2022/09/17 00:55:09;;;;;;;16.25;3.45;;;12.10;99.90;;;;;;5004523;28;20217;-72
2022/09/17 00:57:36;;;;;;;24.55;4.35;;;12.00;99.90;;;;;;5008047;28;20224;-72
2022/09/17 01:00:06;;;;;;;20.90;4.10;;;12.00;99.90;;;;;;5004386;28;20243;-74
2022/09/17 01:02:35;;;;;;;17.38;3.30;;;12.00;99.90;;;;;;4997920;28;20211;-73
2022/09/17 01:05:02;;;;;;;14.40;3.90;;;12.00;99.90;;;;;;5009614;28;20294;-73
2022/09/17 01:08:00;;;;;;;21.35;4.25;;;12.00;99.90;;;;;;4998447;28;20231;-73
2022/09/17 01:10:41;;;;;;;21.63;4.50;;;12.00;99.90;;;;;;4991949;28;20230;-74
2022/09/17 01:13:21;;;;;;;10.90;3.60;;;12.00;99.90;;;;;;5004649;28;20201;-72
2022/09/17 01:15:55;;;;;;;10.00;3.25;;;11.90;99.90;;;;;;5007048;28;20210;-72
2022/09/17 01:18:34;;;;;;;11.32;3.63;;;11.90;99.90;;;;;;5003396;28;20593;-73
2022/09/17 01:21:31;;;;;;;16.23;3.60;;;11.80;99.90;;;;;;5006553;28;20194;-72
2022/09/17 01:24:36;;;;;;;22.42;3.97;;;11.80;99.90;;;;;;4996426;28;20207;-72
2022/09/17 01:27:38;;;;;;;25.35;4.25;;;11.80;99.90;;;;;;5004000;28;20256;-74
2022/09/17 01:30:41;;;;;;;16.17;3.60;;;11.80;99.90;;;;;;4972124;28;20228;-70
2022/09/17 01:33:15;;;;;;;24.67;4.68;;;11.80;99.90;;;;;;4992119;28;20202;-69
2022/09/17 01:35:51;;;;;;;16.52;4.60;;;11.80;99.90;;;;;;5016557;28;20227;-70
2022/09/17 01:38:27;;;;;;;18.90;3.95;;;11.80;99.90;;;;;;5011592;28;20308;-72
2022/09/17 01:40:59;;;;;;;25.45;4.60;;;11.80;99.90;;;;;;5005163;28;20208;-74
2022/09/17 01:43:32;;;;;;;15.05;3.53;;;11.80;99.90;;;;;;5002007;28;20206;-73
2022/09/17 01:46:07;;;;;;;22.40;4.28;;;11.80;99.90;;;;;;5009054;28;20290;-72
2022/09/17 01:48:40;;;;;;;13.52;4.43;;;11.80;99.90;;;;;;5011331;28;20254;-72
2022/09/17 01:51:10;;;;;;;12.63;4.00;;;11.80;99.90;;;;;;5009833;28;20202;-72
2022/09/17 01:53:43;;;;;;;18.25;3.42;;;11.90;99.90;;;;;;5010365;28;20246;-70
2022/09/17 01:56:15;;;;;;;17.75;3.22;;;12.00;99.90;;;;;;5006374;28;20215;-73
2022/09/17 01:58:47;;;;;;;20.15;4.15;;;11.90;99.90;;;;;;5010009;28;20219;-73
2022/09/17 02:01:18;;;;;;;15.65;3.30;;;11.90;99.90;;;;;;5001646;28;20211;-72
2022/09/17 02:03:54;;;;;;;16.63;3.40;;;11.90;99.90;;;;;;5016940;28;20224;-72
2022/09/17 02:06:26;;;;;;;8.23;2.38;;;11.80;99.90;;;;;;5011526;28;20198;-72
2022/09/17 02:08:57;;;;;;;13.20;3.50;;;11.80;99.90;;;;;;5013457;28;20198;-74
2022/09/17 02:11:25;;;;;;;16.45;3.92;;;11.90;99.90;;;;;;5009285;28;20677;-72
2022/09/17 02:13:57;;;;;;;11.93;3.70;;;11.90;99.90;;;;;;5004383;28;20264;-71
2022/09/17 02:16:26;;;;;;;10.90;2.60;;;11.80;99.90;;;;;;5005146;28;20232;-72
2022/09/17 02:19:01;;;;;;;19.10;4.38;;;11.90;99.90;;;;;;5004044;28;20198;-73
2022/09/17 02:21:33;;;;;;;11.73;2.95;;;11.80;99.90;;;;;;5004598;28;20561;-72
2022/09/17 02:24:09;;;;;;;18.35;3.78;;;11.80;99.90;;;;;;5003700;28;20722;-74
2022/09/17 02:26:43;;;;;;;13.77;3.45;;;11.90;99.90;;;;;;5014293;28;20205;-71
2022/09/17 02:29:17;;;;;;;15.40;3.30;;;11.80;99.90;;;;;;5014036;28;20197;-72
2022/09/17 02:31:44;;;;;;;14.32;3.40;;;11.90;99.90;;;;;;5008517;28;20555;-73
2022/09/17 02:34:12;;;;;;;16.42;4.07;;;11.80;99.90;;;;;;5014306;28;20201;-70
2022/09/17 02:36:39;;;;;;;15.20;4.32;;;11.90;99.90;;;;;;5007955;28;20235;-73
2022/09/17 02:39:06;;;;;;;12.35;2.67;;;11.90;99.90;;;;;;5010651;28;20297;-73
2022/09/17 02:41:45;;;;;;;12.18;3.42;;;11.90;99.90;;;;;;5013936;28;20237;-75
2022/09/17 02:44:25;;;;;;;19.75;3.92;;;11.90;99.90;;;;;;5010720;28;20240;-72
2022/09/17 02:47:29;;;;;;;10.98;2.40;;;12.00;99.90;;;;;;4997884;28;20709;-73
2022/09/17 02:50:15;;;;;;;16.52;2.53;;;12.10;99.90;;;;;;5008741;28;20206;-73
2022/09/17 02:52:51;;;;;;;7.97;2.40;;;12.20;99.90;;;;;;4998180;28;20268;-74
2022/09/17 02:55:24;;;;;;;14.35;2.92;;;12.20;99.90;;;;;;5013403;28;20202;-74
2022/09/17 02:57:59;;;;;;;14.68;3.35;;;12.30;99.90;;;;;;5014766;28;20701;-75
2022/09/17 03:00:27;;;;;;;11.18;2.67;;;12.30;99.90;;;;;;5009593;28;20761;-72
2022/09/17 03:02:58;;;;;;;12.70;3.55;;;12.30;99.90;;;;;;5013497;28;20210;-73
2022/09/17 03:05:27;;;;;;;10.98;3.78;;;12.30;99.90;;;;;;5006013;28;20560;-71
2022/09/17 03:07:55;;;;;;;10.10;2.72;;;12.20;99.90;;;;;;5014526;28;20236;-74
2022/09/17 03:10:22;;;;;;;17.83;2.72;;;12.30;99.90;;;;;;5004192;28;20211;-72
2022/09/17 03:12:49;;;;;;;12.85;3.70;;;12.30;99.90;;;;;;5011687;28;20297;-72
2022/09/17 03:15:16;;;;;;;11.57;2.70;;;12.40;99.90;;;;;;5009136;28;20565;-72
2022/09/17 03:17:44;;;;;;;16.95;2.78;;;12.30;99.90;;;;;;5012397;28;20219;-71
2022/09/17 03:20:11;;;;;;;12.20;2.60;;;12.30;99.90;;;;;;5009764;28;20239;-72
2022/09/17 03:22:41;;;;;;;10.10;2.63;;;12.30;99.90;;;;;;5006737;28;20229;-73
2022/09/17 03:25:08;;;;;;;8.70;2.60;;;12.20;99.90;;;;;;5016253;28;20212;-72
2022/09/17 03:27:35;;;;;;;6.30;3.10;;;12.30;99.90;;;;;;5024752;28;20253;-72
2022/09/17 03:30:03;;;;;;;17.05;4.70;;;12.30;99.90;;;;;;4999368;28;20292;-74
2022/09/17 03:32:29;;;;;;;18.15;3.00;;;12.20;99.90;;;;;;5013125;28;20205;-70
2022/09/17 03:34:56;;;;;;;16.95;2.97;;;12.10;99.90;;;;;;5019946;28;20210;-71
2022/09/17 03:37:24;;;;;;;17.80;5.93;;;12.10;99.90;;;;;;5019083;28;20230;-71
2022/09/17 03:39:52;;;;;;;11.85;2.40;;;12.00;99.90;;;;;;5010093;28;20208;-69
2022/09/17 03:42:19;;;;;;;8.60;2.83;;;12.00;99.90;;;;;;5008843;28;20297;-72
2022/09/17 03:44:47;;;;;;;11.13;3.42;;;12.00;99.90;;;;;;5009483;28;20198;-71
2022/09/17 03:47:15;;;;;;;14.82;3.00;;;11.90;99.90;;;;;;5012475;28;20322;-72
2022/09/17 03:49:42;;;;;;;12.02;3.25;;;11.90;99.90;;;;;;5003710;28;20215;-72
2022/09/17 03:52:09;;;;;;;12.40;2.53;;;11.80;99.90;;;;;;5008314;28;20210;-73
2022/09/17 03:54:36;;;;;;;17.08;3.05;;;11.80;99.90;;;;;;5001397;28;20293;-71
2022/09/17 03:57:04;;;;;;;13.52;3.58;;;11.80;99.90;;;;;;5002025;28;20225;-70
2022/09/17 03:59:31;;;;;;;11.00;2.95;;;11.80;99.90;;;;;;5010637;28;20286;-70
2022/09/17 04:01:58;;;;;;;9.27;2.35;;;11.80;99.90;;;;;;5008057;28;20210;-71
2022/09/17 04:04:25;;;;;;;16.65;2.83;;;11.70;99.90;;;;;;5004975;28;20588;-72
2022/09/17 04:06:53;;;;;;;14.18;3.53;;;11.80;99.90;;;;;;5007569;28;20693;-71
2022/09/17 04:09:20;;;;;;;12.13;3.83;;;11.80;99.90;;;;;;5011730;28;20203;-73
2022/09/17 04:11:47;;;;;;;12.40;3.10;;;11.70;99.90;;;;;;5001903;28;20289;-72
2022/09/17 04:14:15;;;;;;;21.35;4.38;;;11.60;99.90;;;;;;5004327;28;20289;-73
2022/09/17 04:16:42;;;;;;;14.02;3.20;;;11.60;99.90;;;;;;5004856;28;20233;-72
2022/09/17 04:19:09;;;;;;;15.13;3.28;;;11.50;99.90;;;;;;5006879;28;20199;-72
2022/09/17 04:21:36;;;;;;;14.98;3.67;;;11.50;99.90;;;;;;5009291;28;20269;-71
2022/09/17 04:24:03;;;;;;;10.55;3.40;;;11.50;99.90;;;;;;5009535;28;20194;-74
2022/09/17 04:26:30;;;;;;;11.35;4.38;;;11.40;99.90;;;;;;4999515;28;20198;-71
2022/09/17 04:28:57;;;;;;;10.77;2.92;;;11.40;99.90;;;;;;5011770;28;20289;-72
2022/09/17 04:31:26;;;;;;;19.42;3.67;;;11.40;99.90;;;;;;5012597;28;20199;-71
2022/09/17 04:33:53;;;;;;;15.30;2.25;;;11.40;99.90;;;;;;5012929;28;20209;-74
2022/09/17 04:36:21;;;;;;;12.23;3.33;;;11.50;99.90;;;;;;5007542;28;20227;-74
2022/09/17 04:38:48;;;;;;;10.40;2.53;;;11.50;99.90;;;;;;4999398;28;20243;-71
2022/09/17 04:41:15;;;;;;;12.20;2.65;;;11.40;99.90;;;;;;5003914;28;20253;-72
2022/09/17 04:43:42;;;;;;;14.40;4.00;;;11.40;99.90;;;;;;5009524;28;20285;-73
2022/09/17 04:46:09;;;;;;;8.20;3.05;;;11.50;99.90;;;;;;5007091;28;20215;-73
2022/09/17 04:48:37;;;;;;;12.73;3.05;;;11.50;99.90;;;;;;5009096;28;20649;-74
2022/09/17 04:51:05;;;;;;;9.13;2.58;;;11.50;99.90;;;;;;5007176;28;20252;-73
2022/09/17 04:53:38;;;;;;;14.20;3.45;;;11.60;99.90;;;;;;5005520;28;20764;-73
2022/09/17 04:56:05;;;;;;;10.85;2.67;;;11.60;99.90;;;;;;5004967;28;20221;-72
2022/09/17 04:58:32;;;;;;;9.60;2.15;;;11.70;99.90;;;;;;5005892;28;20226;-73
2022/09/17 05:00:59;;;;;;;8.80;2.67;;;11.70;99.90;;;;;;5000336;28;20294;-71
2022/09/17 05:03:28;;;;;;;9.13;2.53;;;11.70;99.90;;;;;;5010476;28;20205;-73
2022/09/17 05:06:02;;;;;;;13.57;2.70;;;11.70;99.90;;;;;;5004139;28;20214;-74
2022/09/17 05:08:29;;;;;;;17.00;4.65;;;11.80;99.90;;;;;;5014141;28;20237;-71
2022/09/17 05:10:57;;;;;;;13.05;2.63;;;11.80;99.90;;;;;;4997846;28;20655;-72
2022/09/17 05:13:23;;;;;;;13.27;3.05;;;11.80;99.90;;;;;;5002599;28;20279;-73
2022/09/17 05:15:51;;;;;;;18.05;4.25;;;11.90;99.90;;;;;;5011225;28;20291;-72
2022/09/17 05:18:18;;;;;;;17.40;3.10;;;12.00;99.90;;;;;;5015800;28;20593;-73
2022/09/17 05:20:44;;;;;;;12.32;2.70;;;12.00;99.90;;;;;;4999558;28;20304;-71
2022/09/17 05:23:13;;;;;;;12.73;2.83;;;12.00;99.90;;;;;;5006644;28;20284;-73
2022/09/17 05:25:40;;;;;;;10.07;2.58;;;12.00;99.90;;;;;;5006188;28;20206;-71
2022/09/17 05:28:07;;;;;;;17.05;3.33;;;12.00;99.90;;;;;;5011946;28;20251;-70
2022/09/17 05:30:34;;;;;;;19.17;5.55;;;12.00;99.90;;;;;;5008114;28;20270;-72
2022/09/17 05:33:03;;;;;;;7.88;2.63;;;11.90;99.90;;;;;;5018668;28;20297;-74
2022/09/17 05:35:30;;;;;;;19.92;3.10;;;11.90;99.90;;;;;;5012088;28;20289;-74
2022/09/17 05:37:59;;;;;;;15.65;3.05;;;12.00;99.90;;;;;;4996661;28;20278;-72
2022/09/17 05:40:28;;;;;;;15.55;3.45;;;12.00;99.90;;;;;;5008832;28;20204;-72
2022/09/17 05:42:58;;;;;;;19.45;3.88;;;12.00;99.90;;;;;;5007190;28;20299;-72
2022/09/17 05:45:25;;;;;;;16.65;3.35;;;12.00;99.90;;;;;;5013365;28;20201;-72
2022/09/17 05:47:59;;;;;;;21.67;4.45;;;12.00;99.90;;;;;;5013346;28;20321;-72
2022/09/17 05:50:27;;;;;;;19.90;3.65;;;11.90;99.90;;;;;;4999359;28;20211;-73
2022/09/17 05:52:54;;;;;;;19.55;3.03;;;11.70;99.90;;;;;;5005838;28;20210;-74
2022/09/17 05:55:23;;;;;;;9.80;2.75;;;11.60;99.90;;;;;;5006469;28;20291;-74
2022/09/17 05:57:51;;;;;;;21.33;3.40;;;11.60;99.90;;;;;;5015629;28;20313;-73
2022/09/17 06:00:18;;;;;;;10.27;2.40;;;11.50;99.90;;;;;;5008006;28;20275;-73
2022/09/17 06:02:46;;;;;;;9.90;2.33;;;11.40;99.90;;;;;;5017486;28;20543;-71
2022/09/17 06:05:13;;;;;;;13.85;3.47;;;11.40;99.90;;;;;;5014831;28;20205;-71
2022/09/17 06:07:40;;;;;;;17.08;3.25;;;11.50;99.90;;;;;;5020312;28;20226;-72
2022/09/17 06:10:08;;;;;;;16.08;2.83;;;11.80;99.90;;;;;;5002122;28;20296;-73
2022/09/17 06:12:35;;;;;;;14.65;2.38;;;12.30;99.90;;;;;;5012201;28;20244;-70
2022/09/17 06:15:04;;;;;;;10.95;2.60;;;12.70;99.90;;;;;;5011800;28;20220;-72
2022/09/17 06:17:34;;;;;;;8.45;3.28;;;13.30;99.90;;;;;;5010896;28;20255;-71
2022/09/17 06:20:01;;;;;;;16.10;2.42;;;13.90;99.90;;;;;;5023244;28;20196;-74
2022/09/17 06:22:28;;;;;;;13.55;3.78;;;14.50;99.90;;;;;;5012577;28;20316;-75
2022/09/17 06:24:55;;;;;;;10.77;2.33;;;15.20;99.90;;;;;;5014478;28;20194;-74
2022/09/17 06:27:21;;;;;;;10.90;3.60;;;15.20;99.90;;;;;;5015743;28;20251;-74
2022/09/17 06:29:48;;;;;;;8.07;2.10;;;16.00;99.90;;;;;;5019911;28;20242;-75
2022/09/17 06:32:17;;;;;;;9.97;2.97;;;16.70;99.90;;;;;;5026518;28;20451;-74
2022/09/17 06:34:43;;;;;;;14.23;3.67;;;17.30;99.90;;;;;;5027288;28;20452;-74
2022/09/17 06:37:11;;;;;;;8.80;2.00;;;17.50;99.90;;;;;;5029564;28;20495;-75
2022/09/17 06:39:38;;;;;;;8.20;3.00;;;17.90;99.90;;;;;;5028041;28;20998;-76
2022/09/17 06:42:06;;;;;;;15.00;4.60;;;18.40;99.90;;;;;;5020739;28;20773;-73
2022/09/17 06:44:33;;;;;;;10.80;2.20;;;18.10;99.90;;;;;;5016297;28;20523;-75
2022/09/17 06:47:00;;;;;;;17.47;4.70;;;18.00;99.90;;;;;;5020440;28;20526;-75
2022/09/17 06:49:30;;;;;;;11.77;2.80;;;18.10;99.90;;;;;;5015429;28;20527;-76
2022/09/17 06:51:56;;;;;;;15.10;3.70;;;18.70;99.90;;;;;;5015714;28;20472;-75
2022/09/17 06:54:24;;;;;;;16.27;3.53;;;18.60;99.90;;;;;;5003540;28;20441;-75
2022/09/17 06:56:51;;;;;;;9.70;3.23;;;18.90;99.80;;;;;;5010916;28;20514;-74
2022/09/17 06:59:18;;;;;;;9.93;2.67;;;19.10;98.10;;;;;;5016335;28;20460;-75
2022/09/17 07:01:46;;;;;;;8.80;2.20;;;19.40;97.30;;;;;;5001599;28;20514;-75
2022/09/17 07:04:16;;;;;;;15.40;3.73;;;20.10;97.10;;;;;;5021955;28;20464;-77
2022/09/17 07:06:45;;;;;;;12.27;2.60;;;20.40;94.50;;;;;;5026297;28;20459;-75
2022/09/17 07:09:12;;;;;;;5.00;2.10;;;20.40;94.40;;;;;;5022318;28;20437;-78
2022/09/17 07:11:39;;;;;;;8.00;2.60;;;20.90;93.30;;;;;;5027205;28;20969;-76
2022/09/17 07:14:08;;;;;;;9.97;2.20;;;20.60;92.50;;;;;;5014504;28;20463;-76
2022/09/17 07:16:35;;;;;;;10.33;2.17;;;20.60;93.20;;;;;;5014854;28;20534;-73
2022/09/17 07:19:04;;;;;;;9.30;2.70;;;21.00;92.10;;;;;;5015386;28;20439;-77
2022/09/17 07:21:31;;;;;;;6.40;2.47;;;21.50;91.90;;;;;;5012219;28;20939;-75
2022/09/17 07:24:00;;;;;;;8.80;2.50;;;22.60;90.70;;;;;;5013374;28;20484;-79
2022/09/17 07:26:27;;;;;;;10.37;2.60;;;23.00;89.10;;;;;;5016116;28;20459;-79
2022/09/17 07:28:54;;;;;;;11.70;2.40;;;22.80;88.00;;;;;;5010671;28;20436;-78
2022/09/17 07:31:22;;;;;;;14.63;2.63;;;21.50;88.80;;;;;;5011860;28;20872;-76
2022/09/17 07:33:49;;;;;;;15.40;2.60;;;20.60;90.90;;;;;;5014463;28;20441;-78
2022/09/17 07:36:17;;;;;;;9.20;2.33;;;19.80;92.40;;;;;;5009291;28;20888;-77
2022/09/17 07:38:44;;;;;;;11.53;3.27;;;19.20;94.00;;;;;;5007719;28;20534;-78
2022/09/17 07:41:14;;;;;;;13.73;2.33;;;19.20;95.30;;;;;;5010527;28;20487;-76
2022/09/17 07:43:42;;;;;;;6.07;2.40;;;20.00;93.40;;;;;;5014432;28;20935;-77
2022/09/17 07:46:14;;;;;;;9.77;2.97;;;21.00;92.00;;;;;;5011330;28;21045;-78
2022/09/17 07:48:41;;;;;;;8.07;2.40;;;22.00;91.00;;;;;;5001216;28;20472;-76
2022/09/17 07:51:08;;;;;;;11.40;3.20;;;22.80;88.40;;;;;;5013139;28;20451;-77
2022/09/17 07:53:37;;;;;;;9.23;2.53;;;23.70;85.20;;;;;;5008217;28;20481;-78
2022/09/17 07:56:03;;;;;;;5.00;2.87;;;24.20;82.40;;;;;;5009862;28;20986;-76
2022/09/17 07:58:35;;;;;;;8.77;3.27;;;24.30;81.50;;;;;;5009813;28;20583;-76
2022/09/17 08:01:02;;;;;;;10.73;1.80;;;24.80;79.80;;;;;;5014422;28;20467;-76
2022/09/17 08:03:31;;;;;;;6.17;2.03;;;24.90;78.40;;;;;;5011799;28;20778;-77
2022/09/17 08:06:09;;;;;;;12.70;3.20;;;25.00;76.80;;;;;;5003229;28;20441;-78
2022/09/17 08:08:38;;;;;;;6.00;2.40;;;25.00;77.00;;;;;;5001809;28;20925;-76
2022/09/17 08:11:08;;;;;;;8.73;2.37;;;24.80;76.60;;;;;;4997172;28;20529;-76
2022/09/17 08:13:37;;;;;;;9.07;2.93;;;24.90;78.00;;;;;;5007262;28;20447;-77
2022/09/17 08:16:07;;;;;;;10.00;2.80;;;25.40;76.80;;;;;;5010838;28;20455;-75
2022/09/17 08:18:35;;;;;;;11.83;2.97;;;25.60;76.30;;;;;;5001227;28;21047;-76
2022/09/17 08:21:04;;;;;;;8.80;2.93;;;26.20;75.60;;;;;;5006128;28;20451;-77
2022/09/17 08:23:33;;;;;;;7.83;2.10;;;25.90;74.00;;;;;;5011745;28;20479;-76
2022/09/17 08:26:02;;;;;;;9.17;3.20;;;26.60;73.10;;;;;;5003392;28;20437;-78
2022/09/17 08:28:31;;;;;;;7.63;2.40;;;26.90;72.30;;;;;;5005046;28;20460;-77
2022/09/17 08:31:03;;;;;;;5.73;2.13;;;26.50;71.70;;;;;;5007261;28;20444;-76
2022/09/17 08:33:32;;;;;;;9.00;2.60;;;26.40;71.20;;;;;;5012250;28;20555;-75
2022/09/17 08:35:59;;;;;;;13.00;2.87;;;26.20;71.90;;;;;;5005339;28;20524;-75
2022/09/17 08:38:26;;;;;;;12.73;2.70;;;25.20;72.80;;;;;;5016432;28;20561;-75
2022/09/17 08:41:07;;;;;;;5.97;2.33;;;24.60;74.70;;;;;;5015948;28;20529;-77
2022/09/17 08:43:36;;;;;;;10.63;2.83;;;24.30;75.50;;;;;;5003086;28;20455;-75
2022/09/17 08:46:05;;;;;;;7.23;2.20;;;25.10;73.60;;;;;;5008925;28;20780;-75
2022/09/17 08:48:39;;;;;;;6.53;1.90;;;24.80;71.90;;;;;;5005087;28;20923;-75
2022/09/17 08:51:21;;;;;;;9.30;2.93;;;23.70;72.30;;;;;;4988434;28;20447;-76
2022/09/17 08:54:00;;;;;;;8.73;2.20;;;22.60;72.80;;;;;;5006999;28;20530;-74
2022/09/17 08:56:30;;;;;;;4.70;1.80;;;21.40;76.20;;;;;;5022785;28;20454;-76
2022/09/17 08:59:17;;;;;;;10.80;2.10;;;20.70;78.60;;;;;;5018392;28;20473;-76
2022/09/17 09:01:58;;;;;;;13.57;2.10;;;20.00;82.10;;;;;;5003309;28;20467;-76
2022/09/17 09:04:49;;;;;;;3.53;1.30;;;19.40;84.80;;;;;;5019503;28;20510;-80
2022/09/17 09:07:21;;;;;;;8.03;2.10;;;18.60;88.80;;;;;;5006102;28;20496;-77
2022/09/17 09:09:52;;;;;;;6.93;1.90;;;18.60;91.40;;;;;;5001754;28;20487;-78
2022/09/17 09:12:25;;;;;;;7.10;1.77;;;18.50;91.80;;;;;;5008924;28;20441;-74
2022/09/17 09:14:58;;;;;;;5.10;1.93;;;18.40;92.20;;;;;;5003150;28;20770;-76
2022/09/17 09:17:42;;;;;;;11.50;3.30;;;18.00;92.60;;;;;;5004835;28;20585;-76
2022/09/17 09:20:16;;;;;;;10.10;4.27;;;17.40;95.00;;;;;;4991420;28;20483;-77
2022/09/17 09:22:48;;;;;;;12.13;3.40;;;16.80;98.50;;;;;;5019241;28;20473;-77
2022/09/17 09:25:22;;;;;;;5.70;2.05;;;16.30;99.90;;;;;;5023058;28;20227;-75
2022/09/17 09:28:02;;;;;;;5.80;2.35;;;15.40;99.90;;;;;;5032517;28;20244;-77
2022/09/17 09:30:36;;;;;;;11.95;3.08;;;15.00;99.90;;;;;;5040062;28;20200;-76
2022/09/17 09:33:16;;;;;;;11.02;3.00;;;14.60;99.90;;;;;;5018216;28;20204;-77
2022/09/17 09:35:44;;;;;;;6.00;2.22;;;14.30;99.90;;;;;;5035807;28;20268;-76
2022/09/17 09:38:20;;;;;;;11.73;3.53;;;14.20;99.90;;;;;;5022688;28;20252;-77
2022/09/17 09:40:53;;;;;;;13.65;2.50;;;14.00;99.90;;;;;;5018484;28;20205;-76
2022/09/17 09:43:22;;;;;;;10.85;2.25;;;13.90;99.90;;;;;;5014672;28;20303;-75
2022/09/17 09:46:14;;;;;;;10.55;3.40;;;13.80;99.90;;;;;;5019600;28;20617;-77
2022/09/17 09:48:53;;;;;;;9.35;2.75;;;13.70;99.90;;;;;;5003330;28;20308;-76
2022/09/17 09:51:31;;;;;;;6.90;1.85;;;13.60;99.90;;;;;;4989159;28;20209;-76
2022/09/17 09:54:13;;;;;;;9.10;2.10;;;13.40;99.90;;;;;;4993268;28;20212;-77
2022/09/17 09:56:54;;;;;;;6.68;2.17;;;13.30;99.90;;;;;;4993346;28;20228;-77
2022/09/17 09:59:21;;;;;;;4.20;1.83;;;13.40;99.90;;;;;;4990867;28;20245;-75
2022/09/17 10:01:48;;;;;;;8.00;2.20;;;13.40;99.90;;;;;;5014742;28;20280;-74
2022/09/17 10:04:22;;;;;;;6.97;3.60;;;13.40;99.90;;;;;;5015870;28;20231;-75
2022/09/17 10:06:53;;;;;;;7.72;2.50;;;13.30;99.90;;;;;;5006689;28;20220;-74
2022/09/17 10:09:21;;;;;;;13.73;3.30;;;13.20;99.90;;;;;;5019004;28;20234;-75
2022/09/17 10:12:16;;;;;;;8.52;2.85;;;13.20;99.90;;;;;;5014254;28;20250;-75
2022/09/17 10:14:44;;;;;;;15.55;3.67;;;13.20;99.90;;;;;;5014743;28;20694;-73
2022/09/17 10:17:22;;;;;;;14.35;4.00;;;13.30;99.90;;;;;;5015624;28;20310;-72
2022/09/17 10:20:15;;;;;;;7.72;2.50;;;13.40;99.90;;;;;;5012496;28;20239;-74
2022/09/17 10:22:44;;;;;;;13.15;2.88;;;13.20;99.90;;;;;;5016846;28;20574;-75
2022/09/17 10:25:29;;;;;;;4.28;1.70;;;13.10;99.90;;;;;;5015431;28;20655;-72
2022/09/17 10:27:57;;;;;;;7.72;2.63;;;13.10;99.90;;;;;;5015223;28;20583;-75
2022/09/17 10:30:24;;;;;;;16.92;2.58;;;13.10;99.90;;;;;;5018381;28;20214;-73
2022/09/17 10:33:16;;;;;;;7.20;1.52;;;13.20;99.90;;;;;;5002478;28;20210;-74
2022/09/17 10:35:56;;;;;;;5.13;2.45;;;13.10;99.90;;;;;;5005699;28;20201;-74
2022/09/17 10:38:28;;;;;;;4.05;1.75;;;13.00;99.90;;;;;;4989594;28;20228;-75
2022/09/17 10:41:12;;;;;;;5.78;1.67;;;13.00;99.90;;;;;;5013139;28;20636;-75
2022/09/17 10:43:39;;;;;;;10.15;1.85;;;13.10;99.90;;;;;;5009735;28;20220;-75
2022/09/17 10:46:09;;;;;;;11.13;3.15;;;12.90;99.90;;;;;;5004416;28;20593;-73
2022/09/17 10:48:41;;;;;;;2.97;2.10;;;12.80;99.90;;;;;;5004191;28;20233;-72
2022/09/17 10:51:20;;;;;;;3.72;1.65;;;12.80;99.90;;;;;;5023453;28;20278;-73
2022/09/17 10:54:26;;;;;;;9.25;2.50;;;12.80;99.90;;;;;;5017306;28;20213;-72
2022/09/17 10:56:57;;;;;;;6.55;2.75;;;12.70;99.90;;;;;;4993738;28;20283;-72
2022/09/17 10:59:59;;;;;;;7.55;1.75;;;12.60;99.90;;;;;;5012204;28;20242;-73
2022/09/17 11:03:03;;;;;;;8.77;2.55;;;12.40;99.90;;;;;;4999245;28;20204;-73
2022/09/17 11:05:45;;;;;;;4.60;1.65;;;12.30;99.90;;;;;;5013516;28;20269;-74
2022/09/17 11:08:20;;;;;;;11.27;2.55;;;12.20;99.90;;;;;;5010596;28;20622;-73
2022/09/17 11:10:57;;;;;;;11.60;2.25;;;12.10;99.90;;;;;;5006059;28;20627;-73
2022/09/17 11:13:32;;;;;;;8.82;2.85;;;12.10;99.90;;;;;;4994122;28;20630;-72
2022/09/17 11:16:17;;;;;;;4.30;1.45;;;12.20;99.90;;;;;;5008253;28;20204;-73
2022/09/17 11:18:50;;;;;;;6.78;2.10;;;12.30;99.90;;;;;;4990357;28;20216;-72
2022/09/17 11:21:40;;;;;;;9.90;2.30;;;12.40;99.90;;;;;;4995893;28;20213;-75
2022/09/17 11:24:45;;;;;;;9.77;2.60;;;12.40;99.90;;;;;;4999687;28;20570;-73
2022/09/17 11:27:25;;;;;;;4.38;2.38;;;12.50;99.90;;;;;;4982724;28;20236;-74
2022/09/17 11:30:14;;;;;;;5.82;2.78;;;12.50;99.90;;;;;;5006217;28;20210;-73
2022/09/17 11:32:53;;;;;;;13.38;3.78;;;12.50;99.90;;;;;;5002624;28;20299;-74
2022/09/17 11:35:24;;;;;;;13.85;3.88;;;12.50;99.90;;;;;;4997609;28;20327;-72
2022/09/17 11:37:56;;;;;;;9.70;3.20;;;12.50;99.90;;;;;;5011914;28;20402;-72
2022/09/17 11:40:32;;;;;;;20.65;3.10;;;12.60;99.90;;;;;;5007989;28;20293;-74
2022/09/17 11:43:03;;;;;;;7.90;2.30;;;12.70;99.90;;;;;;5011594;28;20252;-73
2022/09/17 11:45:34;;;;;;;14.93;2.15;;;12.80;99.90;;;;;;5012991;28;20289;-73
2022/09/17 11:48:08;;;;;;;8.32;2.90;;;12.70;99.90;;;;;;5004762;28;20259;-73
2022/09/17 11:50:42;;;;;;;8.00;2.17;;;12.60;99.90;;;;;;5006493;28;20232;-74
2022/09/17 11:53:19;;;;;;;12.18;4.55;;;12.50;99.90;;;;;;4995093;28;20638;-73
2022/09/17 11:55:51;;;;;;;10.73;2.85;;;12.40;99.90;;;;;;5014059;28;20203;-73
2022/09/17 11:58:26;;;;;;;8.25;3.05;;;12.30;99.90;;;;;;5013868;28;20234;-73
2022/09/17 12:01:00;;;;;;;11.20;2.22;;;12.30;99.90;;;;;;5018638;28;20280;-73
2022/09/17 12:03:32;;;;;;;8.95;2.15;;;12.20;99.90;;;;;;5010861;28;20196;-72
2022/09/17 12:06:06;;;;;;;12.00;2.10;;;12.10;99.90;;;;;;5009067;28;20231;-72
2022/09/17 12:08:42;;;;;;;5.45;1.13;;;12.20;99.90;;;;;;4992590;28;20241;-73
2022/09/17 12:11:16;;;;;;;7.85;1.80;;;12.20;99.90;;;;;;5013746;28;20290;-72
2022/09/17 12:13:49;;;;;;;6.20;1.85;;;12.20;99.90;;;;;;5004587;28;20225;-75
2022/09/17 12:16:21;;;;;;;5.47;1.95;;;12.20;99.90;;;;;;4992775;28;20286;-73
2022/09/17 12:18:57;;;;;;;9.90;2.17;;;12.20;99.90;;;;;;5014803;28;20275;-73
2022/09/17 12:21:30;;;;;;;8.23;1.85;;;12.40;99.90;;;;;;4995154;28;20228;-75
2022/09/17 12:24:02;;;;;;;7.43;1.92;;;12.50;99.90;;;;;;5018465;28;20238;-72
2022/09/17 12:26:57;;;;;;;6.85;3.22;;;12.70;99.90;;;;;;5017365;28;20603;-72
2022/09/17 12:29:58;;;;;;;8.73;2.65;;;13.00;99.90;;;;;;5009886;28;20228;-74
2022/09/17 12:32:58;;;;;;;6.13;2.10;;;13.20;99.90;;;;;;5016617;28;20656;-75
2022/09/17 12:35:50;;;;;;;7.65;3.13;;;13.40;99.90;;;;;;4998513;28;20293;-73
2022/09/17 12:38:31;;;;;;;14.57;2.78;;;13.40;99.90;;;;;;5007846;28;20233;-74
2022/09/17 12:41:07;;;;;;;6.35;2.75;;;13.50;99.90;;;;;;5006817;28;20276;-74
2022/09/17 12:44:02;;;;;;;10.02;2.80;;;13.50;99.90;;;;;;5013854;28;20207;-75
2022/09/17 12:46:46;;;;;;;7.43;2.45;;;13.50;99.90;;;;;;5006367;28;20248;-74
2022/09/17 12:49:37;;;;;;;14.80;2.25;;;13.60;99.90;;;;;;4986517;28;20738;-72
2022/09/17 12:52:07;;;;;;;14.40;2.90;;;13.60;99.90;;;;;;5005793;28;20239;-75
2022/09/17 12:55:14;;;;;;;10.38;3.03;;;13.80;99.90;;;;;;5006031;28;20204;-73
2022/09/17 12:57:49;;;;;;;7.15;2.42;;;14.00;99.90;;;;;;4977171;28;20762;-76
2022/09/17 13:00:18;;;;;;;8.45;3.13;;;14.30;99.90;;;;;;5005674;28;20700;-75
2022/09/17 13:02:50;;;;;;;19.10;5.05;;;14.30;99.90;;;;;;5007630;28;20678;-73
2022/09/17 13:06:08;;;;;;;9.85;2.60;;;14.30;99.90;;;;;;4998842;28;20202;-75
2022/09/17 13:09:03;;;;;;;16.50;3.72;;;14.50;99.90;;;;;;4932572;29;20224;-72
2022/09/17 13:11:58;;;;;;;10.65;2.35;;;14.60;99.90;;;;;;4932984;29;20738;-73